sensor_id;sensor_type;location;lat;lon;timestamp;temperature;humidity
64034;SHT31;50280;49.864;8.638;2023-02-22T00:00:36;7.17;77.91
64034;SHT31;50280;49.864;8.638;2023-02-22T00:03:10;7.15;77.98
64034;SHT31;50280;49.864;8.638;2023-02-22T00:05:45;7.13;78.07
64034;SHT31;50280;49.864;8.638;2023-02-22T00:08:18;7.10;78.17
64034;SHT31;50280;49.864;8.638;2023-02-22T00:10:54;7.07;78.25
64034;SHT31;50280;49.864;8.638;2023-02-22T00:13:26;7.06;78.23
64034;SHT31;50280;49.864;8.638;2023-02-22T00:16:00;7.03;78.27
64034;SHT31;50280;49.864;8.638;2023-02-22T00:18:33;7.03;78.34
64034;SHT31;50280;49.864;8.638;2023-02-22T00:21:05;6.98;78.41
64034;SHT31;50280;49.864;8.638;2023-02-22T00:23:38;6.95;78.45
64034;SHT31;50280;49.864;8.638;2023-02-22T00:26:14;6.96;78.66
64034;SHT31;50280;49.864;8.638;2023-02-22T00:28:50;6.92;78.58
64034;SHT31;50280;49.864;8.638;2023-02-22T00:31:24;6.91;78.59
64034;SHT31;50280;49.864;8.638;2023-02-22T00:33:56;6.88;78.60
64034;SHT31;50280;49.864;8.638;2023-02-22T00:36:28;6.87;78.78
64034;SHT31;50280;49.864;8.638;2023-02-22T00:39:01;6.82;78.71
64034;SHT31;50280;49.864;8.638;2023-02-22T00:41:34;6.81;78.68
64034;SHT31;50280;49.864;8.638;2023-02-22T00:44:06;6.81;78.87
64034;SHT31;50280;49.864;8.638;2023-02-22T00:46:38;6.78;78.89
64034;SHT31;50280;49.864;8.638;2023-02-22T00:49:10;6.78;79.06
64034;SHT31;50280;49.864;8.638;2023-02-22T00:51:42;6.77;79.13
64034;SHT31;50280;49.864;8.638;2023-02-22T00:54:15;6.74;79.27
64034;SHT31;50280;49.864;8.638;2023-02-22T00:56:48;6.68;79.22
64034;SHT31;50280;49.864;8.638;2023-02-22T00:59:20;6.67;79.44
64034;SHT31;50280;49.864;8.638;2023-02-22T01:01:52;6.65;79.56
64034;SHT31;50280;49.864;8.638;2023-02-22T01:04:24;6.60;79.76
64034;SHT31;50280;49.864;8.638;2023-02-22T01:06:56;6.58;79.72
64034;SHT31;50280;49.864;8.638;2023-02-22T01:09:29;6.57;79.76
64034;SHT31;50280;49.864;8.638;2023-02-22T01:12:03;6.53;80.00
64034;SHT31;50280;49.864;8.638;2023-02-22T01:14:35;6.51;79.92
64034;SHT31;50280;49.864;8.638;2023-02-22T01:17:08;6.53;79.91
64034;SHT31;50280;49.864;8.638;2023-02-22T01:19:40;6.50;80.02
64034;SHT31;50280;49.864;8.638;2023-02-22T01:22:12;6.50;79.99
64034;SHT31;50280;49.864;8.638;2023-02-22T01:24:44;6.47;79.90
64034;SHT31;50280;49.864;8.638;2023-02-22T01:27:17;6.50;79.89
64034;SHT31;50280;49.864;8.638;2023-02-22T01:29:49;6.50;79.76
64034;SHT31;50280;49.864;8.638;2023-02-22T01:32:21;6.48;79.64
64034;SHT31;50280;49.864;8.638;2023-02-22T01:34:53;6.48;79.58
64034;SHT31;50280;49.864;8.638;2023-02-22T01:37:25;6.47;79.83
64034;SHT31;50280;49.864;8.638;2023-02-22T01:39:57;6.44;79.92
64034;SHT31;50280;49.864;8.638;2023-02-22T01:42:31;6.44;79.85
64034;SHT31;50280;49.864;8.638;2023-02-22T01:45:29;6.44;79.81
64034;SHT31;50280;49.864;8.638;2023-02-22T01:48:20;6.43;79.85
64034;SHT31;50280;49.864;8.638;2023-02-22T01:51:03;6.41;79.86
64034;SHT31;50280;49.864;8.638;2023-02-22T01:53:46;6.40;79.71
64034;SHT31;50280;49.864;8.638;2023-02-22T01:56:24;6.38;79.81
64034;SHT31;50280;49.864;8.638;2023-02-22T01:59:02;6.36;79.95
64034;SHT31;50280;49.864;8.638;2023-02-22T02:01:39;6.36;80.11
64034;SHT31;50280;49.864;8.638;2023-02-22T02:04:15;6.29;80.19
64034;SHT31;50280;49.864;8.638;2023-02-22T02:06:52;6.30;80.12
64034;SHT31;50280;49.864;8.638;2023-02-22T02:09:31;6.32;80.09
64034;SHT31;50280;49.864;8.638;2023-02-22T02:12:10;6.26;80.28
64034;SHT31;50280;49.864;8.638;2023-02-22T02:14:47;6.23;80.42
64034;SHT31;50280;49.864;8.638;2023-02-22T02:17:20;6.23;80.69
64034;SHT31;50280;49.864;8.638;2023-02-22T02:19:55;6.17;80.62
64034;SHT31;50280;49.864;8.638;2023-02-22T02:22:40;6.17;80.68
64034;SHT31;50280;49.864;8.638;2023-02-22T02:35:11;6.06;80.50
64034;SHT31;50280;49.864;8.638;2023-02-22T02:37:55;6.05;80.66
64034;SHT31;50280;49.864;8.638;2023-02-22T02:40:36;5.99;80.78
64034;SHT31;50280;49.864;8.638;2023-02-22T02:43:20;5.94;80.94
64034;SHT31;50280;49.864;8.638;2023-02-22T02:46:04;5.91;80.77
64034;SHT31;50280;49.864;8.638;2023-02-22T02:48:47;5.84;81.00
64034;SHT31;50280;49.864;8.638;2023-02-22T02:51:26;5.78;81.41
64034;SHT31;50280;49.864;8.638;2023-02-22T02:54:07;5.75;81.44
64034;SHT31;50280;49.864;8.638;2023-02-22T02:56:42;5.72;81.25
64034;SHT31;50280;49.864;8.638;2023-02-22T02:59:24;5.71;81.21
64034;SHT31;50280;49.864;8.638;2023-02-22T03:02:05;5.71;81.29
64034;SHT31;50280;49.864;8.638;2023-02-22T03:05:18;5.74;81.11
64034;SHT31;50280;49.864;8.638;2023-02-22T03:08:15;5.77;80.94
64034;SHT31;50280;49.864;8.638;2023-02-22T03:11:03;5.74;80.99
64034;SHT31;50280;49.864;8.638;2023-02-22T03:13:44;5.68;81.38
64034;SHT31;50280;49.864;8.638;2023-02-22T03:16:28;5.60;81.74
64034;SHT31;50280;49.864;8.638;2023-02-22T03:19:11;5.57;81.74
64034;SHT31;50280;49.864;8.638;2023-02-22T03:22:00;5.50;81.59
64034;SHT31;50280;49.864;8.638;2023-02-22T03:24:44;5.53;81.52
64034;SHT31;50280;49.864;8.638;2023-02-22T03:27:26;5.53;81.54
64034;SHT31;50280;49.864;8.638;2023-02-22T03:30:06;5.51;81.65
64034;SHT31;50280;49.864;8.638;2023-02-22T03:32:47;5.53;81.56
64034;SHT31;50280;49.864;8.638;2023-02-22T03:35:29;5.53;81.55
64034;SHT31;50280;49.864;8.638;2023-02-22T03:38:08;5.50;81.42
64034;SHT31;50280;49.864;8.638;2023-02-22T03:40:48;5.51;81.66
64034;SHT31;50280;49.864;8.638;2023-02-22T03:43:26;5.50;81.59
64034;SHT31;50280;49.864;8.638;2023-02-22T03:46:07;5.48;81.58
64034;SHT31;50280;49.864;8.638;2023-02-22T03:48:44;5.46;81.34
64034;SHT31;50280;49.864;8.638;2023-02-22T03:51:24;5.46;81.35
64034;SHT31;50280;49.864;8.638;2023-02-22T03:53:59;5.44;81.21
64034;SHT31;50280;49.864;8.638;2023-02-22T03:56:32;5.42;81.23
64034;SHT31;50280;49.864;8.638;2023-02-22T03:59:12;5.40;81.14
64034;SHT31;50280;49.864;8.638;2023-02-22T04:01:44;5.37;81.22
64034;SHT31;50280;49.864;8.638;2023-02-22T04:04:16;5.37;81.30
64034;SHT31;50280;49.864;8.638;2023-02-22T04:06:49;5.32;81.29
64034;SHT31;50280;49.864;8.638;2023-02-22T04:09:23;5.30;81.23
64034;SHT31;50280;49.864;8.638;2023-02-22T04:11:55;5.30;81.31
64034;SHT31;50280;49.864;8.638;2023-02-22T04:14:30;5.30;81.18
64034;SHT31;50280;49.864;8.638;2023-02-22T04:17:02;5.26;81.09
64034;SHT31;50280;49.864;8.638;2023-02-22T04:19:34;5.27;81.14
64034;SHT31;50280;49.864;8.638;2023-02-22T04:22:07;5.27;81.12
64034;SHT31;50280;49.864;8.638;2023-02-22T04:24:40;5.25;80.98
64034;SHT31;50280;49.864;8.638;2023-02-22T04:27:13;5.25;81.16
64034;SHT31;50280;49.864;8.638;2023-02-22T04:29:45;5.22;81.24
64034;SHT31;50280;49.864;8.638;2023-02-22T04:32:17;5.19;81.17
64034;SHT31;50280;49.864;8.638;2023-02-22T04:34:49;5.16;81.25
64034;SHT31;50280;49.864;8.638;2023-02-22T04:37:22;5.13;81.38
64034;SHT31;50280;49.864;8.638;2023-02-22T04:39:55;5.09;81.51
64034;SHT31;50280;49.864;8.638;2023-02-22T04:42:27;5.09;81.71
64034;SHT31;50280;49.864;8.638;2023-02-22T04:44:59;5.11;81.42
64034;SHT31;50280;49.864;8.638;2023-02-22T04:47:32;5.09;81.31
64034;SHT31;50280;49.864;8.638;2023-02-22T04:50:04;5.09;81.31
64034;SHT31;50280;49.864;8.638;2023-02-22T04:52:38;5.05;81.24
64034;SHT31;50280;49.864;8.638;2023-02-22T04:55:12;5.05;81.23
64034;SHT31;50280;49.864;8.638;2023-02-22T04:57:44;4.99;81.35
64034;SHT31;50280;49.864;8.638;2023-02-22T05:00:17;4.99;81.32
64034;SHT31;50280;49.864;8.638;2023-02-22T05:02:50;4.96;81.28
64034;SHT31;50280;49.864;8.638;2023-02-22T05:05:22;4.93;81.45
64034;SHT31;50280;49.864;8.638;2023-02-22T05:07:55;4.89;81.44
64034;SHT31;50280;49.864;8.638;2023-02-22T05:10:28;4.88;81.36
64034;SHT31;50280;49.864;8.638;2023-02-22T05:13:00;4.87;81.82
64034;SHT31;50280;49.864;8.638;2023-02-22T05:15:32;4.88;81.68
64034;SHT31;50280;49.864;8.638;2023-02-22T05:18:04;4.85;81.55
64034;SHT31;50280;49.864;8.638;2023-02-22T05:20:36;4.85;81.58
64034;SHT31;50280;49.864;8.638;2023-02-22T05:23:08;4.82;81.72
64034;SHT31;50280;49.864;8.638;2023-02-22T05:25:42;4.81;81.55
64034;SHT31;50280;49.864;8.638;2023-02-22T05:28:14;4.77;81.37
64034;SHT31;50280;49.864;8.638;2023-02-22T05:30:47;4.80;81.37
64034;SHT31;50280;49.864;8.638;2023-02-22T05:33:19;4.80;81.38
64034;SHT31;50280;49.864;8.638;2023-02-22T05:35:51;4.77;81.18
64034;SHT31;50280;49.864;8.638;2023-02-22T05:38:23;4.72;81.00
64034;SHT31;50280;49.864;8.638;2023-02-22T05:40:57;4.70;81.60
64034;SHT31;50280;49.864;8.638;2023-02-22T05:43:29;4.65;81.34
64034;SHT31;50280;49.864;8.638;2023-02-22T05:46:01;4.56;81.68
64034;SHT31;50280;49.864;8.638;2023-02-22T05:48:33;4.54;81.76
64034;SHT31;50280;49.864;8.638;2023-02-22T05:51:05;4.50;81.71
64034;SHT31;50280;49.864;8.638;2023-02-22T05:53:38;4.49;82.23
64034;SHT31;50280;49.864;8.638;2023-02-22T05:56:11;4.47;82.37
64034;SHT31;50280;49.864;8.638;2023-02-22T05:58:43;4.44;82.02
64034;SHT31;50280;49.864;8.638;2023-02-22T06:01:15;4.34;82.28
64034;SHT31;50280;49.864;8.638;2023-02-22T06:03:48;4.28;82.44
64034;SHT31;50280;49.864;8.638;2023-02-22T06:06:21;4.22;82.66
64034;SHT31;50280;49.864;8.638;2023-02-22T06:08:52;4.15;82.80
64034;SHT31;50280;49.864;8.638;2023-02-22T06:11:26;4.05;83.02
64034;SHT31;50280;49.864;8.638;2023-02-22T06:13:58;3.99;83.32
64034;SHT31;50280;49.864;8.638;2023-02-22T06:16:30;3.94;83.70
64034;SHT31;50280;49.864;8.638;2023-02-22T06:19:02;3.88;84.40
64034;SHT31;50280;49.864;8.638;2023-02-22T06:21:34;3.84;84.75
64034;SHT31;50280;49.864;8.638;2023-02-22T06:24:06;3.81;84.98
64034;SHT31;50280;49.864;8.638;2023-02-22T06:26:40;3.78;85.15
64034;SHT31;50280;49.864;8.638;2023-02-22T06:29:12;3.73;85.24
64034;SHT31;50280;49.864;8.638;2023-02-22T06:31:44;3.67;85.19
64034;SHT31;50280;49.864;8.638;2023-02-22T06:34:16;3.64;85.07
64034;SHT31;50280;49.864;8.638;2023-02-22T06:36:49;3.60;84.71
64034;SHT31;50280;49.864;8.638;2023-02-22T06:39:21;3.53;84.87
64034;SHT31;50280;49.864;8.638;2023-02-22T06:41:54;3.52;84.89
64034;SHT31;50280;49.864;8.638;2023-02-22T06:44:27;3.47;84.97
64034;SHT31;50280;49.864;8.638;2023-02-22T06:46:59;3.46;85.23
64034;SHT31;50280;49.864;8.638;2023-02-22T06:49:31;3.43;85.69
64034;SHT31;50280;49.864;8.638;2023-02-22T06:52:03;3.44;85.86
64034;SHT31;50280;49.864;8.638;2023-02-22T06:54:37;3.46;86.15
64034;SHT31;50280;49.864;8.638;2023-02-22T06:57:11;3.49;86.32
64034;SHT31;50280;49.864;8.638;2023-02-22T06:59:43;3.53;86.43
64034;SHT31;50280;49.864;8.638;2023-02-22T07:02:15;3.61;86.39
64034;SHT31;50280;49.864;8.638;2023-02-22T07:04:47;3.66;86.53
64034;SHT31;50280;49.864;8.638;2023-02-22T07:07:21;3.70;86.76
64034;SHT31;50280;49.864;8.638;2023-02-22T07:09:53;3.71;86.95
64034;SHT31;50280;49.864;8.638;2023-02-22T07:12:26;3.75;87.65
64034;SHT31;50280;49.864;8.638;2023-02-22T07:14:58;3.82;88.11
64034;SHT31;50280;49.864;8.638;2023-02-22T07:17:31;3.94;88.38
64034;SHT31;50280;49.864;8.638;2023-02-22T07:20:03;3.99;88.60
64034;SHT31;50280;49.864;8.638;2023-02-22T07:22:36;4.05;88.48
64034;SHT31;50280;49.864;8.638;2023-02-22T07:25:08;4.13;88.38
64034;SHT31;50280;49.864;8.638;2023-02-22T07:27:42;4.17;88.15
64034;SHT31;50280;49.864;8.638;2023-02-22T07:30:15;4.23;87.87
64034;SHT31;50280;49.864;8.638;2023-02-22T07:32:51;4.29;87.69
64034;SHT31;50280;49.864;8.638;2023-02-22T07:35:26;4.34;87.23
64034;SHT31;50280;49.864;8.638;2023-02-22T07:38:00;4.36;86.67
64034;SHT31;50280;49.864;8.638;2023-02-22T07:40:34;4.39;86.25
64034;SHT31;50280;49.864;8.638;2023-02-22T07:43:13;4.34;85.98
64034;SHT31;50280;49.864;8.638;2023-02-22T07:45:48;4.29;85.19
64034;SHT31;50280;49.864;8.638;2023-02-22T07:48:23;4.25;84.95
64034;SHT31;50280;49.864;8.638;2023-02-22T07:50:58;4.16;85.06
64034;SHT31;50280;49.864;8.638;2023-02-22T07:53:31;4.12;85.21
64034;SHT31;50280;49.864;8.638;2023-02-22T07:56:04;4.02;85.56
64034;SHT31;50280;49.864;8.638;2023-02-22T07:58:38;3.99;85.49
64034;SHT31;50280;49.864;8.638;2023-02-22T08:01:10;3.99;85.70
64034;SHT31;50280;49.864;8.638;2023-02-22T08:03:42;3.97;85.92
64034;SHT31;50280;49.864;8.638;2023-02-22T08:06:14;3.94;86.44
64034;SHT31;50280;49.864;8.638;2023-02-22T08:08:47;3.97;86.40
64034;SHT31;50280;49.864;8.638;2023-02-22T08:11:19;3.97;86.47
64034;SHT31;50280;49.864;8.638;2023-02-22T08:13:52;3.98;86.73
64034;SHT31;50280;49.864;8.638;2023-02-22T08:16:24;4.01;86.91
64034;SHT31;50280;49.864;8.638;2023-02-22T08:18:56;4.05;87.00
64034;SHT31;50280;49.864;8.638;2023-02-22T08:21:28;4.10;86.84
64034;SHT31;50280;49.864;8.638;2023-02-22T08:24:00;4.17;86.92
64034;SHT31;50280;49.864;8.638;2023-02-22T08:26:33;4.26;86.72
64034;SHT31;50280;49.864;8.638;2023-02-22T08:29:06;4.37;86.49
64034;SHT31;50280;49.864;8.638;2023-02-22T08:31:38;4.44;86.39
64034;SHT31;50280;49.864;8.638;2023-02-22T08:34:11;4.52;86.23
64034;SHT31;50280;49.864;8.638;2023-02-22T08:36:43;4.57;85.85
64034;SHT31;50280;49.864;8.638;2023-02-22T08:39:15;4.67;85.65
64034;SHT31;50280;49.864;8.638;2023-02-22T08:41:48;4.75;85.53
64034;SHT31;50280;49.864;8.638;2023-02-22T08:44:21;4.85;85.52
64034;SHT31;50280;49.864;8.638;2023-02-22T08:46:53;4.96;85.34
64034;SHT31;50280;49.864;8.638;2023-02-22T08:49:25;5.09;85.27
64034;SHT31;50280;49.864;8.638;2023-02-22T08:51:58;5.22;84.83
64034;SHT31;50280;49.864;8.638;2023-02-22T08:54:30;5.34;84.39
64034;SHT31;50280;49.864;8.638;2023-02-22T08:57:02;5.44;84.04
64034;SHT31;50280;49.864;8.638;2023-02-22T08:59:35;5.53;83.68
64034;SHT31;50280;49.864;8.638;2023-02-22T09:02:12;5.61;83.65
64034;SHT31;50280;49.864;8.638;2023-02-22T09:04:46;5.70;83.19
64034;SHT31;50280;49.864;8.638;2023-02-22T09:07:22;5.75;83.27
64034;SHT31;50280;49.864;8.638;2023-02-22T09:09:54;5.87;83.71
64034;SHT31;50280;49.864;8.638;2023-02-22T09:12:26;5.89;83.01
64034;SHT31;50280;49.864;8.638;2023-02-22T09:15:00;5.96;83.35
64034;SHT31;50280;49.864;8.638;2023-02-22T09:17:32;6.05;82.68
64034;SHT31;50280;49.864;8.638;2023-02-22T09:20:05;6.07;82.67
64034;SHT31;50280;49.864;8.638;2023-02-22T09:22:39;6.16;82.94
64034;SHT31;50280;49.864;8.638;2023-02-22T09:25:11;6.24;83.02
64034;SHT31;50280;49.864;8.638;2023-02-22T09:27:45;6.40;82.62
64034;SHT31;50280;49.864;8.638;2023-02-22T09:30:22;6.55;82.15
64034;SHT31;50280;49.864;8.638;2023-02-22T09:32:58;6.72;81.55
64034;SHT31;50280;49.864;8.638;2023-02-22T09:35:32;6.93;80.75
64034;SHT31;50280;49.864;8.638;2023-02-22T09:38:04;7.07;79.82
64034;SHT31;50280;49.864;8.638;2023-02-22T09:40:38;7.16;79.64
64034;SHT31;50280;49.864;8.638;2023-02-22T09:43:21;7.17;79.78
64034;SHT31;50280;49.864;8.638;2023-02-22T09:46:11;7.24;80.01
64034;SHT31;50280;49.864;8.638;2023-02-22T09:49:01;7.41;79.55
64034;SHT31;50280;49.864;8.638;2023-02-22T09:51:45;7.58;79.34
64034;SHT31;50280;49.864;8.638;2023-02-22T09:54:27;7.78;78.78
64034;SHT31;50280;49.864;8.638;2023-02-22T09:57:08;7.97;78.34
64034;SHT31;50280;49.864;8.638;2023-02-22T09:59:47;8.10;77.78
64034;SHT31;50280;49.864;8.638;2023-02-22T10:02:33;8.29;77.63
64034;SHT31;50280;49.864;8.638;2023-02-22T10:05:14;8.48;76.61
64034;SHT31;50280;49.864;8.638;2023-02-22T10:07:57;8.68;76.04
64034;SHT31;50280;49.864;8.638;2023-02-22T11:08:26;12.41;63.74
64034;SHT31;50280;49.864;8.638;2023-02-22T11:11:01;12.56;63.56
64034;SHT31;50280;49.864;8.638;2023-02-22T11:13:52;12.79;62.84
64034;SHT31;50280;49.864;8.638;2023-02-22T11:16:27;12.96;62.50
64034;SHT31;50280;49.864;8.638;2023-02-22T11:19:08;13.17;61.47
64034;SHT31;50280;49.864;8.638;2023-02-22T11:21:50;13.24;61.04
64034;SHT31;50280;49.864;8.638;2023-02-22T11:24:28;13.31;60.55
64034;SHT31;50280;49.864;8.638;2023-02-22T11:27:01;13.43;60.22
64034;SHT31;50280;49.864;8.638;2023-02-22T11:29:35;13.48;60.66
64034;SHT31;50280;49.864;8.638;2023-02-22T11:32:11;13.51;61.09
64034;SHT31;50280;49.864;8.638;2023-02-22T11:34:49;13.64;61.14
64034;SHT31;50280;49.864;8.638;2023-02-22T11:37:28;13.87;60.35
64034;SHT31;50280;49.864;8.638;2023-02-22T11:40:10;14.02;57.96
64034;SHT31;50280;49.864;8.638;2023-02-22T11:42:46;14.05;58.49
64034;SHT31;50280;49.864;8.638;2023-02-22T11:45:21;14.09;57.87
64034;SHT31;50280;49.864;8.638;2023-02-22T11:47:54;14.13;58.61
64034;SHT31;50280;49.864;8.638;2023-02-22T11:50:31;14.18;57.96
64034;SHT31;50280;49.864;8.638;2023-02-22T11:53:20;14.28;58.24
64034;SHT31;50280;49.864;8.638;2023-02-22T11:56:12;14.38;57.13
64034;SHT31;50280;49.864;8.638;2023-02-22T11:58:51;14.48;57.49
64034;SHT31;50280;49.864;8.638;2023-02-22T12:01:38;14.60;56.91
64034;SHT31;50280;49.864;8.638;2023-02-22T12:04:29;14.72;57.46
64034;SHT31;50280;49.864;8.638;2023-02-22T12:07:23;14.73;56.75
64034;SHT31;50280;49.864;8.638;2023-02-22T12:10:14;14.65;57.11
64034;SHT31;50280;49.864;8.638;2023-02-22T12:13:08;14.55;57.70
64034;SHT31;50280;49.864;8.638;2023-02-22T12:16:02;14.46;57.78
64034;SHT31;50280;49.864;8.638;2023-02-22T12:18:55;14.38;58.31
64034;SHT31;50280;49.864;8.638;2023-02-22T12:21:42;14.42;58.16
64034;SHT31;50280;49.864;8.638;2023-02-22T12:24:24;14.45;57.92
64034;SHT31;50280;49.864;8.638;2023-02-22T12:27:06;14.52;56.62
64034;SHT31;50280;49.864;8.638;2023-02-22T12:29:48;14.62;56.91
64034;SHT31;50280;49.864;8.638;2023-02-22T12:32:28;14.78;56.99
64034;SHT31;50280;49.864;8.638;2023-02-22T12:35:11;15.04;56.87
64034;SHT31;50280;49.864;8.638;2023-02-22T12:37:55;15.28;54.42
64034;SHT31;50280;49.864;8.638;2023-02-22T12:40:38;15.43;53.75
64034;SHT31;50280;49.864;8.638;2023-02-22T12:43:21;15.54;52.79
64034;SHT31;50280;49.864;8.638;2023-02-22T12:46:02;15.54;53.08
64034;SHT31;50280;49.864;8.638;2023-02-22T12:48:44;15.62;52.05
64034;SHT31;50280;49.864;8.638;2023-02-22T12:51:26;15.68;52.20
64034;SHT31;50280;49.864;8.638;2023-02-22T12:54:13;15.83;52.13
64034;SHT31;50280;49.864;8.638;2023-02-22T12:56:56;16.10;51.60
64034;SHT31;50280;49.864;8.638;2023-02-22T12:59:36;16.25;51.42
64034;SHT31;50280;49.864;8.638;2023-02-22T13:02:21;16.16;51.70
64034;SHT31;50280;49.864;8.638;2023-02-22T13:05:02;15.97;52.44
64034;SHT31;50280;49.864;8.638;2023-02-22T13:07:36;15.82;52.95
64034;SHT31;50280;49.864;8.638;2023-02-22T13:10:25;15.77;53.24
64034;SHT31;50280;49.864;8.638;2023-02-22T13:13:23;15.62;53.94
64034;SHT31;50280;49.864;8.638;2023-02-22T13:16:23;15.72;53.98
64034;SHT31;50280;49.864;8.638;2023-02-22T13:19:14;16.02;52.86
64034;SHT31;50280;49.864;8.638;2023-02-22T13:22:08;16.20;52.25
64034;SHT31;50280;49.864;8.638;2023-02-22T13:25:00;16.20;52.09
64034;SHT31;50280;49.864;8.638;2023-02-22T13:27:41;16.14;52.37
64034;SHT31;50280;49.864;8.638;2023-02-22T13:30:22;16.06;52.31
64034;SHT31;50280;49.864;8.638;2023-02-22T13:33:09;16.10;52.60
64034;SHT31;50280;49.864;8.638;2023-02-22T13:36:12;16.06;52.61
64034;SHT31;50280;49.864;8.638;2023-02-22T13:42:19;16.17;52.24
64034;SHT31;50280;49.864;8.638;2023-02-22T13:45:32;16.25;52.08
64034;SHT31;50280;49.864;8.638;2023-02-22T13:48:30;16.31;51.74
64034;SHT31;50280;49.864;8.638;2023-02-22T13:51:34;16.38;51.58
64034;SHT31;50280;49.864;8.638;2023-02-22T13:54:19;16.55;51.71
64034;SHT31;50280;49.864;8.638;2023-02-22T13:56:58;16.69;50.63
64034;SHT31;50280;49.864;8.638;2023-02-22T13:59:33;16.83;51.21
64034;SHT31;50280;49.864;8.638;2023-02-22T14:02:12;17.00;50.30
64034;SHT31;50280;49.864;8.638;2023-02-22T14:05:35;17.07;49.39
64034;SHT31;50280;49.864;8.638;2023-02-22T14:14:15;16.51;50.55
64034;SHT31;50280;49.864;8.638;2023-02-22T14:20:01;16.24;51.11
64034;SHT31;50280;49.864;8.638;2023-02-22T14:26:09;16.16;51.51
64034;SHT31;50280;49.864;8.638;2023-02-22T14:28:50;16.13;51.15
64034;SHT31;50280;49.864;8.638;2023-02-22T14:31:26;16.06;51.47
64034;SHT31;50280;49.864;8.638;2023-02-22T14:34:03;16.06;51.33
64034;SHT31;50280;49.864;8.638;2023-02-22T14:36:47;16.05;51.49
64034;SHT31;50280;49.864;8.638;2023-02-22T14:39:27;16.07;51.18
64034;SHT31;50280;49.864;8.638;2023-02-22T14:42:07;16.00;51.45
64034;SHT31;50280;49.864;8.638;2023-02-22T14:44:49;16.07;51.62
64034;SHT31;50280;49.864;8.638;2023-02-22T14:47:31;16.16;51.42
64034;SHT31;50280;49.864;8.638;2023-02-22T14:50:13;16.20;50.83
64034;SHT31;50280;49.864;8.638;2023-02-22T14:52:57;16.16;50.58
64034;SHT31;50280;49.864;8.638;2023-02-22T14:55:36;16.14;50.98
64034;SHT31;50280;49.864;8.638;2023-02-22T14:58:14;16.13;50.93
64034;SHT31;50280;49.864;8.638;2023-02-22T15:00:52;16.13;51.18
64034;SHT31;50280;49.864;8.638;2023-02-22T15:03:26;16.14;51.09
64034;SHT31;50280;49.864;8.638;2023-02-22T15:06:04;16.18;51.24
64034;SHT31;50280;49.864;8.638;2023-02-22T15:08:46;16.10;50.81
64034;SHT31;50280;49.864;8.638;2023-02-22T15:11:20;16.00;51.18
64034;SHT31;50280;49.864;8.638;2023-02-22T15:13:57;15.82;51.77
64034;SHT31;50280;49.864;8.638;2023-02-22T15:16:32;15.69;52.00
64034;SHT31;50280;49.864;8.638;2023-02-22T15:19:05;15.58;52.11
64034;SHT31;50280;49.864;8.638;2023-02-22T15:21:39;15.51;52.49
64034;SHT31;50280;49.864;8.638;2023-02-22T15:24:19;15.44;52.70
64034;SHT31;50280;49.864;8.638;2023-02-22T15:26:55;15.40;52.47
64034;SHT31;50280;49.864;8.638;2023-02-22T15:29:36;15.38;52.90
64034;SHT31;50280;49.864;8.638;2023-02-22T15:32:18;15.35;52.68
64034;SHT31;50280;49.864;8.638;2023-02-22T15:35:09;15.27;52.75
64034;SHT31;50280;49.864;8.638;2023-02-22T15:37:45;15.20;53.24
64034;SHT31;50280;49.864;8.638;2023-02-22T15:40:20;15.14;53.31
64034;SHT31;50280;49.864;8.638;2023-02-22T15:42:52;15.06;53.69
64034;SHT31;50280;49.864;8.638;2023-02-22T15:45:25;14.99;54.45
64034;SHT31;50280;49.864;8.638;2023-02-22T15:47:57;14.96;54.37
64034;SHT31;50280;49.864;8.638;2023-02-22T15:50:30;14.90;54.47
64034;SHT31;50280;49.864;8.638;2023-02-22T15:53:05;14.82;54.68
64034;SHT31;50280;49.864;8.638;2023-02-22T15:55:56;14.67;55.27
64034;SHT31;50280;49.864;8.638;2023-02-22T15:58:33;14.58;55.43
64034;SHT31;50280;49.864;8.638;2023-02-22T16:01:07;14.52;55.93
64034;SHT31;50280;49.864;8.638;2023-02-22T16:03:42;14.46;56.24
64034;SHT31;50280;49.864;8.638;2023-02-22T16:06:22;14.38;56.39
64034;SHT31;50280;49.864;8.638;2023-02-22T16:09:05;14.30;56.66
64034;SHT31;50280;49.864;8.638;2023-02-22T16:11:42;14.20;56.91
64034;SHT31;50280;49.864;8.638;2023-02-22T16:14:23;14.12;57.23
64034;SHT31;50280;49.864;8.638;2023-02-22T16:17:18;14.03;57.52
64034;SHT31;50280;49.864;8.638;2023-02-22T16:26:03;13.69;61.28
64034;SHT31;50280;49.864;8.638;2023-02-22T16:28:50;13.51;62.24
64034;SHT31;50280;49.864;8.638;2023-02-22T16:31:26;13.43;62.77
64034;SHT31;50280;49.864;8.638;2023-02-22T16:34:00;13.33;63.54
64034;SHT31;50280;49.864;8.638;2023-02-22T16:36:35;13.20;63.87
64034;SHT31;50280;49.864;8.638;2023-02-22T16:39:12;13.13;64.26
64034;SHT31;50280;49.864;8.638;2023-02-22T16:41:50;13.02;64.64
64034;SHT31;50280;49.864;8.638;2023-02-22T16:44:24;12.90;64.86
64034;SHT31;50280;49.864;8.638;2023-02-22T16:46:57;12.81;65.43
64034;SHT31;50280;49.864;8.638;2023-02-22T16:49:30;12.75;65.68
64034;SHT31;50280;49.864;8.638;2023-02-22T16:52:02;12.64;65.88
64034;SHT31;50280;49.864;8.638;2023-02-22T16:54:39;12.54;66.21
64034;SHT31;50280;49.864;8.638;2023-02-22T16:57:16;12.44;66.39
64034;SHT31;50280;49.864;8.638;2023-02-22T16:59:53;12.40;66.73
64034;SHT31;50280;49.864;8.638;2023-02-22T17:02:25;12.33;66.90
64034;SHT31;50280;49.864;8.638;2023-02-22T17:04:58;12.27;67.16
64034;SHT31;50280;49.864;8.638;2023-02-22T17:07:30;12.20;67.39
64034;SHT31;50280;49.864;8.638;2023-02-22T17:10:02;12.17;67.62
64034;SHT31;50280;49.864;8.638;2023-02-22T17:12:34;12.09;67.83
64034;SHT31;50280;49.864;8.638;2023-02-22T17:15:08;12.03;68.05
64034;SHT31;50280;49.864;8.638;2023-02-22T17:17:50;11.96;68.21
64034;SHT31;50280;49.864;8.638;2023-02-22T17:20:24;11.89;68.54
64034;SHT31;50280;49.864;8.638;2023-02-22T17:22:57;11.86;68.72
64034;SHT31;50280;49.864;8.638;2023-02-22T17:25:32;11.81;68.87
64034;SHT31;50280;49.864;8.638;2023-02-22T17:28:08;11.78;69.00
64034;SHT31;50280;49.864;8.638;2023-02-22T17:30:43;11.72;69.14
64034;SHT31;50280;49.864;8.638;2023-02-22T17:33:17;11.66;69.25
64034;SHT31;50280;49.864;8.638;2023-02-22T17:35:51;11.59;69.34
64034;SHT31;50280;49.864;8.638;2023-02-22T17:38:25;11.55;69.70
64034;SHT31;50280;49.864;8.638;2023-02-22T17:40:57;11.52;69.79
64034;SHT31;50280;49.864;8.638;2023-02-22T17:43:30;11.48;69.89
64034;SHT31;50280;49.864;8.638;2023-02-22T17:46:05;11.45;70.14
64034;SHT31;50280;49.864;8.638;2023-02-22T17:48:39;11.41;70.27
64034;SHT31;50280;49.864;8.638;2023-02-22T17:51:11;11.38;70.42
64034;SHT31;50280;49.864;8.638;2023-02-22T17:53:43;11.35;70.62
64034;SHT31;50280;49.864;8.638;2023-02-22T17:56:15;11.31;70.72
64034;SHT31;50280;49.864;8.638;2023-02-22T17:58:51;11.26;70.89
64034;SHT31;50280;49.864;8.638;2023-02-22T18:01:27;11.26;70.97
64034;SHT31;50280;49.864;8.638;2023-02-22T18:04:02;11.21;71.23
64034;SHT31;50280;49.864;8.638;2023-02-22T18:06:35;11.14;71.46
64034;SHT31;50280;49.864;8.638;2023-02-22T18:09:08;11.13;71.46
64034;SHT31;50280;49.864;8.638;2023-02-22T18:11:40;11.10;71.78